Ansbach Army Heliport ETEB

Flugplatz Daten

Name: Ansbach Army Heliport

Ident: ETEB

Lat: 49,30820084

Long: 10,63869953

Platzhöhe: 0 ft

IataCode:

City:

Metar

2022/08/15 17:56
ETEB 151756Z AUTO 26017G23KT 9999 FEW080 22/13 A2976 RMK AO2 SLP072 T02230128 10271 20223 52014 $

Taf

2022/08/11 15:47
TAF ETEB 111500Z 1115/1221 09010KT 9999 SKC QNH3016INS
BECMG 1116/1117 08010G15KT 9999 SKC QNH3016INS
BECMG 1118/1119 10007KT 9999 SKC QNH3014INS
BECMG 1206/1207 09012G18KT 9999 SKC QNH3016INS TX28/1115Z TN13/1204Z LAST NO
AMDS AFT 1122 NEXT 1207
Gewünschte Webcam nicht vorhanden? Dann fügen Sie eine hinzu. Sie wird dann so schnell wie möglich freigeschaltet
Url: Title: